sensor_id;sensor_type;location;lat;lon;timestamp;pressure;altitude;pressure_sealevel;temperature;humidity
22104;BME280;11218;48.886;9.426;2023-05-17T00:01:58;98377.72;;;8.82;71.83
22104;BME280;11218;48.886;9.426;2023-05-17T00:04:26;98379.38;;;8.83;71.41
22104;BME280;11218;48.886;9.426;2023-05-17T00:06:55;98388.47;;;8.82;71.17
22104;BME280;11218;48.886;9.426;2023-05-17T00:09:24;98386.59;;;8.83;71.21
22104;BME280;11218;48.886;9.426;2023-05-17T00:11:52;98390.09;;;8.83;71.69
22104;BME280;11218;48.886;9.426;2023-05-17T00:14:20;98388.56;;;8.76;70.45
22104;BME280;11218;48.886;9.426;2023-05-17T00:16:48;98390.44;;;8.75;71.26
22104;BME280;11218;48.886;9.426;2023-05-17T00:19:18;98392.28;;;8.75;72.14
22104;BME280;11218;48.886;9.426;2023-05-17T00:21:46;98394.16;;;8.74;71.69
22104;BME280;11218;48.886;9.426;2023-05-17T00:24:14;98388.56;;;8.76;71.93
22104;BME280;11218;48.886;9.426;2023-05-17T00:26:44;98387.16;;;8.73;71.63
22104;BME280;11218;48.886;9.426;2023-05-17T00:29:12;98392.75;;;8.72;71.45
22104;BME280;11218;48.886;9.426;2023-05-17T00:31:40;98391.34;;;8.69;71.43
22104;BME280;11218;48.886;9.426;2023-05-17T00:34:09;98397.53;;;8.70;71.93
22104;BME280;11218;48.886;9.426;2023-05-17T00:36:37;98397.53;;;8.70;71.98
22104;BME280;11218;48.886;9.426;2023-05-17T00:39:05;98400.06;;;8.65;72.12
22104;BME280;11218;48.886;9.426;2023-05-17T00:41:33;98403.81;;;8.64;71.77
22104;BME280;11218;48.886;9.426;2023-05-17T00:44:03;98390.47;;;8.57;72.35
22104;BME280;11218;48.886;9.426;2023-05-17T00:46:31;98390.47;;;8.57;72.31
22104;BME280;11218;48.886;9.426;2023-05-17T00:49:00;98393.63;;;8.54;72.88
22104;BME280;11218;48.886;9.426;2023-05-17T00:51:28;98392.91;;;8.47;72.73
22104;BME280;11218;48.886;9.426;2023-05-17T00:53:57;98397.91;;;8.43;73.34
22104;BME280;11218;48.886;9.426;2023-05-17T00:56:26;98394.38;;;8.43;72.94
22104;BME280;11218;48.886;9.426;2023-05-17T00:58:54;98401.03;;;8.40;72.81
22104;BME280;11218;48.886;9.426;2023-05-17T01:01:24;98406.41;;;8.40;73.23
22104;BME280;11218;48.886;9.426;2023-05-17T01:03:52;98402.53;;;8.36;72.99
22104;BME280;11218;48.886;9.426;2023-05-17T01:06:21;98408.94;;;8.35;73.64
22104;BME280;11218;48.886;9.426;2023-05-17T01:08:49;98412.22;;;8.37;73.45
22104;BME280;11218;48.886;9.426;2023-05-17T01:11:26;98408.53;;;8.32;72.92
22104;BME280;11218;48.886;9.426;2023-05-17T01:14:01;98414.66;;;8.20;73.56
22104;BME280;11218;48.886;9.426;2023-05-17T01:16:38;98418.38;;;8.19;73.83
22104;BME280;11218;48.886;9.426;2023-05-17T01:19:30;98418.97;;;8.21;74.12
22104;BME280;11218;48.886;9.426;2023-05-17T01:22:14;98424.34;;;8.21;74.05
22104;BME280;11218;48.886;9.426;2023-05-17T01:24:49;98417.94;;;8.22;74.13
22104;BME280;11218;48.886;9.426;2023-05-17T01:27:22;98422.47;;;8.22;74.09
22104;BME280;11218;48.886;9.426;2023-05-17T01:29:54;98423.25;;;8.11;73.48
22104;BME280;11218;48.886;9.426;2023-05-17T01:32:23;98426.38;;;8.08;73.39
22104;BME280;11218;48.886;9.426;2023-05-17T01:34:52;98425.28;;;7.97;73.53
22104;BME280;11218;48.886;9.426;2023-05-17T01:37:20;98428.63;;;7.93;74.10
22104;BME280;11218;48.886;9.426;2023-05-17T01:39:48;98424.97;;;7.87;73.95
22104;BME280;11218;48.886;9.426;2023-05-17T01:42:22;98426.97;;;7.91;74.89
22104;BME280;11218;48.886;9.426;2023-05-17T01:44:57;98424.44;;;7.97;74.57
22104;BME280;11218;48.886;9.426;2023-05-17T01:47:35;98427.06;;;8.03;74.08
22104;BME280;11218;48.886;9.426;2023-05-17T01:50:06;98439.56;;;8.09;74.13
22104;BME280;11218;48.886;9.426;2023-05-17T01:52:37;98431.75;;;8.08;74.32
22104;BME280;11218;48.886;9.426;2023-05-17T01:55:15;98439.56;;;8.09;74.96
22104;BME280;11218;48.886;9.426;2023-05-17T01:57:47;98429.66;;;8.10;75.11
22104;BME280;11218;48.886;9.426;2023-05-17T02:00:21;98438.53;;;8.10;74.43
22104;BME280;11218;48.886;9.426;2023-05-17T02:02:51;98436.22;;;8.14;74.50
22104;BME280;11218;48.886;9.426;2023-05-17T02:05:19;98440.75;;;8.13;74.33
22104;BME280;11218;48.886;9.426;2023-05-17T02:07:48;98434.56;;;8.13;74.05
22104;BME280;11218;48.886;9.426;2023-05-17T02:10:16;98442.47;;;8.08;74.74
22104;BME280;11218;48.886;9.426;2023-05-17T02:12:46;98445.38;;;8.06;74.32
22104;BME280;11218;48.886;9.426;2023-05-17T02:15:14;98442.09;;;8.04;74.68
22104;BME280;11218;48.886;9.426;2023-05-17T02:17:42;98438.81;;;8.02;74.94
22104;BME280;11218;48.886;9.426;2023-05-17T02:20:11;98443.81;;;7.99;75.58
22104;BME280;11218;48.886;9.426;2023-05-17T02:22:39;98449.38;;;7.97;75.90
22104;BME280;11218;48.886;9.426;2023-05-17T02:25:08;98442.38;;;7.96;75.82
22104;BME280;11218;48.886;9.426;2023-05-17T02:27:36;98451.69;;;7.94;75.59
22104;BME280;11218;48.886;9.426;2023-05-17T02:30:07;98448.63;;;7.90;75.39
22104;BME280;11218;48.886;9.426;2023-05-17T02:32:35;98447.00;;;7.89;75.47
22104;BME280;11218;48.886;9.426;2023-05-17T02:35:05;98453.03;;;7.84;75.49
22104;BME280;11218;48.886;9.426;2023-05-17T02:37:33;98455.94;;;7.83;75.01
22104;BME280;11218;48.886;9.426;2023-05-17T02:40:01;98456.38;;;7.80;75.56
22104;BME280;11218;48.886;9.426;2023-05-17T02:42:31;98460.09;;;7.79;75.56
22104;BME280;11218;48.886;9.426;2023-05-17T02:45:00;98451.06;;;7.73;76.02
22104;BME280;11218;48.886;9.426;2023-05-17T02:47:30;98449.22;;;7.74;75.88
22104;BME280;11218;48.886;9.426;2023-05-17T02:49:58;98457.09;;;7.69;74.87
22104;BME280;11218;48.886;9.426;2023-05-17T02:52:26;98457.97;;;7.63;75.61
22104;BME280;11218;48.886;9.426;2023-05-17T02:54:54;98449.19;;;7.55;76.85
22104;BME280;11218;48.886;9.426;2023-05-17T02:57:23;98454.53;;;7.55;76.89
22104;BME280;11218;48.886;9.426;2023-05-17T02:59:51;98458.84;;;7.56;76.19
22104;BME280;11218;48.886;9.426;2023-05-17T03:02:19;98457.44;;;7.54;76.49
22104;BME280;11218;48.886;9.426;2023-05-17T03:04:49;98456.00;;;7.51;76.30
22104;BME280;11218;48.886;9.426;2023-05-17T03:07:17;98460.56;;;7.51;76.59
22104;BME280;11218;48.886;9.426;2023-05-17T03:09:45;98458.53;;;7.46;77.00
22104;BME280;11218;48.886;9.426;2023-05-17T03:12:13;98467.59;;;7.45;76.53
22104;BME280;11218;48.886;9.426;2023-05-17T03:14:42;98459.34;;;7.47;76.08
22104;BME280;11218;48.886;9.426;2023-05-17T03:17:10;98465.16;;;7.44;76.15
22104;BME280;11218;48.886;9.426;2023-05-17T03:19:38;98468.63;;;7.44;77.47
22104;BME280;11218;48.886;9.426;2023-05-17T03:22:08;98467.81;;;7.44;76.67
22104;BME280;11218;48.886;9.426;2023-05-17T03:24:36;98467.38;;;7.47;76.90
22104;BME280;11218;48.886;9.426;2023-05-17T03:27:04;98466.56;;;7.46;77.48
22104;BME280;11218;48.886;9.426;2023-05-17T03:29:32;98477.28;;;7.46;77.13
22104;BME280;11218;48.886;9.426;2023-05-17T03:32:02;98467.59;;;7.45;76.21
22104;BME280;11218;48.886;9.426;2023-05-17T03:34:30;98477.72;;;7.43;76.29
22104;BME280;11218;48.886;9.426;2023-05-17T03:36:58;98478.53;;;7.44;75.69
22104;BME280;11218;48.886;9.426;2023-05-17T03:39:27;98482.94;;;7.38;76.58
22104;BME280;11218;48.886;9.426;2023-05-17T03:41:56;98481.50;;;7.36;76.19
22104;BME280;11218;48.886;9.426;2023-05-17T03:44:25;98485.06;;;7.30;76.46
22104;BME280;11218;48.886;9.426;2023-05-17T03:46:53;98484.88;;;7.24;76.04
22104;BME280;11218;48.886;9.426;2023-05-17T03:49:21;98482.00;;;7.26;75.73
22104;BME280;11218;48.886;9.426;2023-05-17T03:51:49;98482.69;;;7.15;76.51
22104;BME280;11218;48.886;9.426;2023-05-17T03:54:17;98487.66;;;7.11;76.80
22104;BME280;11218;48.886;9.426;2023-05-17T03:56:47;98496.50;;;7.12;77.50
22104;BME280;11218;48.886;9.426;2023-05-17T03:59:16;98495.09;;;7.09;76.87
22104;BME280;11218;48.886;9.426;2023-05-17T04:01:44;98495.09;;;7.09;77.46
22104;BME280;11218;48.886;9.426;2023-05-17T04:04:13;98493.66;;;7.07;77.65
22104;BME280;11218;48.886;9.426;2023-05-17T04:06:41;98499.63;;;7.09;76.63
22104;BME280;11218;48.886;9.426;2023-05-17T04:09:09;98496.13;;;7.08;77.89
22104;BME280;11218;48.886;9.426;2023-05-17T04:11:39;98502.25;;;7.15;76.97
22104;BME280;11218;48.886;9.426;2023-05-17T04:14:09;98509.47;;;7.15;76.84
22104;BME280;11218;48.886;9.426;2023-05-17T04:16:37;98507.59;;;7.15;77.52
22104;BME280;11218;48.886;9.426;2023-05-17T04:19:05;98519.97;;;7.16;76.76
22104;BME280;11218;48.886;9.426;2023-05-17T04:21:33;98518.38;;;7.02;77.50
22104;BME280;11218;48.886;9.426;2023-05-17T04:24:01;98513.84;;;7.03;78.59
22104;BME280;11218;48.886;9.426;2023-05-17T04:26:29;98519.81;;;7.05;78.05
22104;BME280;11218;48.886;9.426;2023-05-17T04:28:58;98526.59;;;7.07;77.83
22104;BME280;11218;48.886;9.426;2023-05-17T04:31:29;98537.91;;;7.09;77.94
22104;BME280;11218;48.886;9.426;2023-05-17T04:33:58;98533.78;;;7.13;77.18
22104;BME280;11218;48.886;9.426;2023-05-17T04:36:26;98541.97;;;7.18;78.18
22104;BME280;11218;48.886;9.426;2023-05-17T04:38:55;98540.06;;;7.25;78.06
22104;BME280;11218;48.886;9.426;2023-05-17T04:41:23;98544.56;;;7.32;77.86
22104;BME280;11218;48.886;9.426;2023-05-17T04:43:51;98540.00;;;7.39;77.25
22104;BME280;11218;48.886;9.426;2023-05-17T04:46:19;98546.38;;;7.38;77.57
22104;BME280;11218;48.886;9.426;2023-05-17T04:48:49;98549.72;;;7.33;77.83
22104;BME280;11218;48.886;9.426;2023-05-17T04:51:17;98542.53;;;7.27;77.87
22104;BME280;11218;48.886;9.426;2023-05-17T04:53:46;98548.72;;;7.28;78.07
22104;BME280;11218;48.886;9.426;2023-05-17T04:56:14;98555.72;;;7.29;79.25
22104;BME280;11218;48.886;9.426;2023-05-17T04:58:42;98567.81;;;7.38;78.66
22104;BME280;11218;48.886;9.426;2023-05-17T05:01:11;98571.44;;;7.43;77.76
22104;BME280;11218;48.886;9.426;2023-05-17T05:03:39;98567.09;;;7.49;77.90
22104;BME280;11218;48.886;9.426;2023-05-17T05:06:08;98568.91;;;7.55;78.30
22104;BME280;11218;48.886;9.426;2023-05-17T05:08:37;98572.94;;;7.64;77.61
22104;BME280;11218;48.886;9.426;2023-05-17T05:11:05;98576.03;;;7.68;78.02
22104;BME280;11218;48.886;9.426;2023-05-17T05:13:34;98575.59;;;7.71;77.17
22104;BME280;11218;48.886;9.426;2023-05-17T05:16:05;98578.22;;;7.77;77.37
22104;BME280;11218;48.886;9.426;2023-05-17T05:18:34;98580.84;;;7.84;77.33
22104;BME280;11218;48.886;9.426;2023-05-17T05:21:02;98576.03;;;7.93;77.23
22104;BME280;11218;48.886;9.426;2023-05-17T05:23:32;98570.84;;;7.98;76.56
22104;BME280;11218;48.886;9.426;2023-05-17T05:26:00;98581.28;;;8.06;76.34
22104;BME280;11218;48.886;9.426;2023-05-17T05:28:28;98569.72;;;8.05;76.62
22104;BME280;11218;48.886;9.426;2023-05-17T05:30:57;98585.53;;;8.13;76.25
22104;BME280;11218;48.886;9.426;2023-05-17T05:33:26;98591.63;;;8.20;76.67
22104;BME280;11218;48.886;9.426;2023-05-17T05:35:54;98589.72;;;8.28;76.18
22104;BME280;11218;48.886;9.426;2023-05-17T05:38:22;98593.19;;;8.35;76.82
22104;BME280;11218;48.886;9.426;2023-05-17T05:40:52;98589.59;;;8.41;75.83
22104;BME280;11218;48.886;9.426;2023-05-17T05:43:20;98588.13;;;8.45;76.27
22104;BME280;11218;48.886;9.426;2023-05-17T05:45:48;98595.72;;;8.48;75.60
22104;BME280;11218;48.886;9.426;2023-05-17T05:48:16;98594.69;;;8.49;74.43
22104;BME280;11218;48.886;9.426;2023-05-17T05:50:44;98591.19;;;8.48;74.17
22104;BME280;11218;48.886;9.426;2023-05-17T05:53:12;98596.53;;;8.48;73.52
22104;BME280;11218;48.886;9.426;2023-05-17T05:55:45;98601.47;;;8.51;73.28
22104;BME280;11218;48.886;9.426;2023-05-17T05:58:14;98600.34;;;8.59;73.46
22104;BME280;11218;48.886;9.426;2023-05-17T06:00:43;98601.25;;;8.71;73.36
22104;BME280;11218;48.886;9.426;2023-05-17T06:03:11;98607.16;;;8.80;72.31
22104;BME280;11218;48.886;9.426;2023-05-17T06:05:39;98605.88;;;8.82;73.04
22104;BME280;11218;48.886;9.426;2023-05-17T06:08:07;98616.66;;;8.94;72.19
22104;BME280;11218;48.886;9.426;2023-05-17T06:10:35;98624.19;;;9.04;70.84
22104;BME280;11218;48.886;9.426;2023-05-17T06:13:03;98623.75;;;9.07;70.82
22104;BME280;11218;48.886;9.426;2023-05-17T06:15:33;98613.59;;;9.09;71.04
22104;BME280;11218;48.886;9.426;2023-05-17T06:18:01;98623.19;;;9.16;70.18
22104;BME280;11218;48.886;9.426;2023-05-17T06:20:32;98621.25;;;9.23;71.05
22104;BME280;11218;48.886;9.426;2023-05-17T06:23:00;98622.22;;;9.29;71.27
22104;BME280;11218;48.886;9.426;2023-05-17T06:25:30;98623.31;;;9.40;70.71
22104;BME280;11218;48.886;9.426;2023-05-17T06:27:58;98627.19;;;9.44;70.48
22104;BME280;11218;48.886;9.426;2023-05-17T06:30:28;98631.78;;;9.55;69.73
22104;BME280;11218;48.886;9.426;2023-05-17T06:32:58;98628.88;;;9.57;70.54
22104;BME280;11218;48.886;9.426;2023-05-17T06:35:26;98627.84;;;9.69;69.96
22104;BME280;11218;48.886;9.426;2023-05-17T06:38:03;98625.19;;;9.81;69.24
22104;BME280;11218;48.886;9.426;2023-05-17T06:40:31;98629.50;;;9.82;69.41
22104;BME280;11218;48.886;9.426;2023-05-17T06:43:00;98629.19;;;9.90;69.92
22104;BME280;11218;48.886;9.426;2023-05-17T06:45:28;98633.63;;;9.96;69.70
22104;BME280;11218;48.886;9.426;2023-05-17T06:47:58;98631.56;;;10.10;68.38
22104;BME280;11218;48.886;9.426;2023-05-17T06:50:26;98625.94;;;10.11;68.35
22104;BME280;11218;48.886;9.426;2023-05-17T06:52:56;98627.63;;;10.24;68.45
22104;BME280;11218;48.886;9.426;2023-05-17T06:55:24;98630.66;;;10.28;68.24
22104;BME280;11218;48.886;9.426;2023-05-17T06:57:55;98632.19;;;10.24;68.10
22104;BME280;11218;48.886;9.426;2023-05-17T07:00:23;98638.63;;;10.34;67.66
22104;BME280;11218;48.886;9.426;2023-05-17T07:02:51;98629.13;;;10.43;67.27
22104;BME280;11218;48.886;9.426;2023-05-17T07:05:21;98628.53;;;10.65;67.09
22104;BME280;11218;48.886;9.426;2023-05-17T07:07:50;98626.88;;;10.75;66.79
22104;BME280;11218;48.886;9.426;2023-05-17T07:10:18;98625.69;;;10.95;66.99
22104;BME280;11218;48.886;9.426;2023-05-17T07:12:48;98625.59;;;11.18;64.88
22104;BME280;11218;48.886;9.426;2023-05-17T07:15:17;98632.84;;;11.29;63.68
22104;BME280;11218;48.886;9.426;2023-05-17T07:17:45;98629.84;;;11.42;62.70
22104;BME280;11218;48.886;9.426;2023-05-17T07:20:13;98627.44;;;11.58;63.71
22104;BME280;11218;48.886;9.426;2023-05-17T07:22:43;98635.81;;;11.73;61.57
22104;BME280;11218;48.886;9.426;2023-05-17T07:25:11;98629.72;;;11.94;63.07
22104;BME280;11218;48.886;9.426;2023-05-17T07:27:41;98631.22;;;12.18;61.46
22104;BME280;11218;48.886;9.426;2023-05-17T07:30:10;98634.25;;;12.39;61.02
22104;BME280;11218;48.886;9.426;2023-05-17T07:32:38;98635.22;;;12.49;59.02
22104;BME280;11218;48.886;9.426;2023-05-17T07:35:06;98633.59;;;12.70;59.02
22104;BME280;11218;48.886;9.426;2023-05-17T07:37:35;98630.75;;;12.99;59.59
22104;BME280;11218;48.886;9.426;2023-05-17T07:40:06;98629.22;;;13.25;58.07
22104;BME280;11218;48.886;9.426;2023-05-17T07:42:34;98631.41;;;13.28;57.41
22104;BME280;11218;48.886;9.426;2023-05-17T07:45:02;98635.56;;;13.35;57.54
22104;BME280;11218;48.886;9.426;2023-05-17T07:47:31;98636.06;;;13.59;57.48
22104;BME280;11218;48.886;9.426;2023-05-17T07:49:59;98631.91;;;13.73;56.77
22104;BME280;11218;48.886;9.426;2023-05-17T07:52:30;98635.44;;;13.74;56.47
22104;BME280;11218;48.886;9.426;2023-05-17T07:55:01;98636.81;;;13.76;55.50
22104;BME280;11218;48.886;9.426;2023-05-17T07:57:33;98639.78;;;13.53;54.45
22104;BME280;11218;48.886;9.426;2023-05-17T08:00:05;98629.63;;;13.38;55.88
22104;BME280;11218;48.886;9.426;2023-05-17T08:02:34;98634.06;;;13.23;55.96
22104;BME280;11218;48.886;9.426;2023-05-17T08:05:02;98628.25;;;13.14;56.49
22104;BME280;11218;48.886;9.426;2023-05-17T08:07:30;98633.59;;;13.09;57.68
22104;BME280;11218;48.886;9.426;2023-05-17T08:09:59;98631.94;;;12.86;56.32
22104;BME280;11218;48.886;9.426;2023-05-17T08:12:27;98644.41;;;12.70;58.11
22104;BME280;11218;48.886;9.426;2023-05-17T08:14:57;98641.13;;;12.46;59.16
22104;BME280;11218;48.886;9.426;2023-05-17T08:17:27;98645.03;;;12.39;58.72
22104;BME280;11218;48.886;9.426;2023-05-17T08:19:55;98642.44;;;12.27;59.82
22104;BME280;11218;48.886;9.426;2023-05-17T08:22:23;98640.53;;;12.28;60.44
22104;BME280;11218;48.886;9.426;2023-05-17T08:24:52;98644.47;;;12.20;60.50
22104;BME280;11218;48.886;9.426;2023-05-17T08:27:20;98640.88;;;12.14;59.56
22104;BME280;11218;48.886;9.426;2023-05-17T08:29:48;98642.09;;;12.07;60.13
22104;BME280;11218;48.886;9.426;2023-05-17T08:32:18;98650.13;;;12.18;60.09
22104;BME280;11218;48.886;9.426;2023-05-17T08:34:47;98655.03;;;12.22;59.80
22104;BME280;11218;48.886;9.426;2023-05-17T08:37:16;98647.59;;;12.29;59.48
22104;BME280;11218;48.886;9.426;2023-05-17T08:39:44;98649.47;;;12.28;59.42
22104;BME280;11218;48.886;9.426;2023-05-17T08:42:17;98645.63;;;12.41;59.60
22104;BME280;11218;48.886;9.426;2023-05-17T08:44:48;98647.84;;;12.66;59.02
22104;BME280;11218;48.886;9.426;2023-05-17T08:47:19;98649.81;;;12.70;57.83
22104;BME280;11218;48.886;9.426;2023-05-17T08:49:55;98649.91;;;12.97;56.49
22104;BME280;11218;48.886;9.426;2023-05-17T08:52:29;98644.91;;;13.06;57.89
22104;BME280;11218;48.886;9.426;2023-05-17T08:54:58;98653.56;;;13.08;57.36
22104;BME280;11218;48.886;9.426;2023-05-17T08:57:32;98651.03;;;13.18;56.02
22104;BME280;11218;48.886;9.426;2023-05-17T09:00:02;98644.94;;;13.28;55.71
22104;BME280;11218;48.886;9.426;2023-05-17T09:02:34;98645.84;;;13.38;55.10
22104;BME280;11218;48.886;9.426;2023-05-17T09:05:04;98647.22;;;13.63;54.53
22104;BME280;11218;48.886;9.426;2023-05-17T09:07:32;98655.34;;;13.90;54.18
22104;BME280;11218;48.886;9.426;2023-05-17T09:10:01;98647.47;;;13.88;52.92
22104;BME280;11218;48.886;9.426;2023-05-17T09:12:31;98637.97;;;13.86;52.46
22104;BME280;11218;48.886;9.426;2023-05-17T09:15:14;98648.75;;;14.07;51.93
22104;BME280;11218;48.886;9.426;2023-05-17T09:17:49;98648.41;;;14.36;51.36
22104;BME280;11218;48.886;9.426;2023-05-17T09:20:22;98648.59;;;14.24;52.00
22104;BME280;11218;48.886;9.426;2023-05-17T09:22:51;98652.31;;;14.18;51.45
22104;BME280;11218;48.886;9.426;2023-05-17T09:25:20;98658.16;;;14.37;50.94
22104;BME280;11218;48.886;9.426;2023-05-17T09:27:51;98652.16;;;14.62;51.16
22104;BME280;11218;48.886;9.426;2023-05-17T09:30:25;98655.47;;;14.69;51.26
22104;BME280;11218;48.886;9.426;2023-05-17T09:32:55;98649.91;;;14.96;50.39
22104;BME280;11218;48.886;9.426;2023-05-17T09:35:27;98646.47;;;15.10;51.13
22104;BME280;11218;48.886;9.426;2023-05-17T09:38:04;98655.53;;;14.79;48.94
22104;BME280;11218;48.886;9.426;2023-05-17T09:40:36;98662.22;;;14.66;48.80
22104;BME280;11218;48.886;9.426;2023-05-17T09:43:06;98656.03;;;14.39;49.78
22104;BME280;11218;48.886;9.426;2023-05-17T09:45:35;98666.88;;;14.07;50.57
22104;BME280;11218;48.886;9.426;2023-05-17T09:48:15;98663.03;;;14.03;50.96
22104;BME280;11218;48.886;9.426;2023-05-17T09:50:47;98671.16;;;14.03;50.01
22104;BME280;11218;48.886;9.426;2023-05-17T09:53:25;98665.09;;;14.23;51.37
22104;BME280;11218;48.886;9.426;2023-05-17T09:55:55;98666.81;;;14.34;50.22
22104;BME280;11218;48.886;9.426;2023-05-17T09:58:26;98662.38;;;14.23;51.32
22104;BME280;11218;48.886;9.426;2023-05-17T10:00:58;98658.38;;;14.30;51.94
22104;BME280;11218;48.886;9.426;2023-05-17T10:03:30;98665.31;;;14.16;50.13
22104;BME280;11218;48.886;9.426;2023-05-17T10:06:01;98661.78;;;14.15;47.89
22104;BME280;11218;48.886;9.426;2023-05-17T10:08:33;98674.59;;;13.93;50.20
22104;BME280;11218;48.886;9.426;2023-05-17T10:11:04;98669.72;;;13.68;51.60
22104;BME280;11218;48.886;9.426;2023-05-17T10:13:33;98674.31;;;13.68;52.23
22104;BME280;11218;48.886;9.426;2023-05-17T10:16:03;98673.06;;;13.54;53.09
22104;BME280;11218;48.886;9.426;2023-05-17T10:18:33;98671.63;;;13.68;52.50
22104;BME280;11218;48.886;9.426;2023-05-17T10:21:01;98667.59;;;13.48;52.14
22104;BME280;11218;48.886;9.426;2023-05-17T10:23:30;98676.72;;;13.42;52.73
22104;BME280;11218;48.886;9.426;2023-05-17T10:25:58;98671.63;;;13.46;52.63
22104;BME280;11218;48.886;9.426;2023-05-17T10:28:29;98677.66;;;13.53;53.48
22104;BME280;11218;48.886;9.426;2023-05-17T10:30:58;98676.84;;;13.53;53.11
22104;BME280;11218;48.886;9.426;2023-05-17T10:33:27;98675.94;;;13.69;54.47
22104;BME280;11218;48.886;9.426;2023-05-17T10:35:57;98677.94;;;13.78;55.09
22104;BME280;11218;48.886;9.426;2023-05-17T10:38:26;98674.75;;;13.81;53.06
22104;BME280;11218;48.886;9.426;2023-05-17T10:41:08;98669.56;;;13.80;53.85
22104;BME280;11218;48.886;9.426;2023-05-17T10:43:39;98676.38;;;13.82;52.77
22104;BME280;11218;48.886;9.426;2023-05-17T10:46:11;98675.94;;;13.69;52.97
22104;BME280;11218;48.886;9.426;2023-05-17T10:48:41;98667.09;;;13.52;52.65
22104;BME280;11218;48.886;9.426;2023-05-17T10:51:11;98672.88;;;13.60;52.69
22104;BME280;11218;48.886;9.426;2023-05-17T10:54:06;98676.53;;;13.49;51.30
22104;BME280;11218;48.886;9.426;2023-05-17T10:56:38;98669.81;;;13.52;51.86
22104;BME280;11218;48.886;9.426;2023-05-17T10:59:18;98678.47;;;13.54;51.53
22104;BME280;11218;48.886;9.426;2023-05-17T11:01:49;98671.63;;;13.68;51.65
22104;BME280;11218;48.886;9.426;2023-05-17T11:04:23;98679.59;;;13.79;51.35
22104;BME280;11218;48.886;9.426;2023-05-17T11:07:24;98683.56;;;13.72;51.45
22104;BME280;11218;48.886;9.426;2023-05-17T11:09:54;98691.00;;;13.60;51.03
22104;BME280;11218;48.886;9.426;2023-05-17T11:12:30;98682.25;;;13.53;52.45
22104;BME280;11218;48.886;9.426;2023-05-17T11:15:06;98679.94;;;13.39;52.27
22104;BME280;11218;48.886;9.426;2023-05-17T11:17:47;98687.69;;;13.31;53.07
22104;BME280;11218;48.886;9.426;2023-05-17T11:20:30;98687.91;;;13.07;53.38
22104;BME280;11218;48.886;9.426;2023-05-17T11:23:02;98676.84;;;13.09;53.75
22104;BME280;11218;48.886;9.426;2023-05-17T11:25:32;98675.38;;;13.18;55.01
22104;BME280;11218;48.886;9.426;2023-05-17T11:28:06;98683.94;;;13.15;53.54
22104;BME280;11218;48.886;9.426;2023-05-17T11:30:40;98676.44;;;13.17;54.20
22104;BME280;11218;48.886;9.426;2023-05-17T11:33:17;98673.38;;;13.13;53.61
22104;BME280;11218;48.886;9.426;2023-05-17T11:36:02;98674.81;;;12.99;54.48
22104;BME280;11218;48.886;9.426;2023-05-17T11:38:33;98675.63;;;13.00;55.65
22104;BME280;11218;48.886;9.426;2023-05-17T11:41:16;98679.22;;;13.05;54.41
22104;BME280;11218;48.886;9.426;2023-05-17T11:43:48;98671.03;;;13.00;54.72
22104;BME280;11218;48.886;9.426;2023-05-17T11:46:20;98665.38;;;13.02;53.97
22104;BME280;11218;48.886;9.426;2023-05-17T11:48:50;98673.50;;;13.02;53.40
22104;BME280;11218;48.886;9.426;2023-05-17T11:51:19;98674.69;;;13.11;54.21
22104;BME280;11218;48.886;9.426;2023-05-17T11:53:53;98676.75;;;13.21;54.57
22104;BME280;11218;48.886;9.426;2023-05-17T11:56:22;98668.22;;;13.29;55.17
22104;BME280;11218;48.886;9.426;2023-05-17T11:59:07;98670.19;;;13.38;53.68
22104;BME280;11218;48.886;9.426;2023-05-17T12:01:42;98676.66;;;13.37;53.37
22104;BME280;11218;48.886;9.426;2023-05-17T12:04:12;98668.88;;;13.41;53.21
22104;BME280;11218;48.886;9.426;2023-05-17T12:06:40;98670.50;;;13.42;53.20
22104;BME280;11218;48.886;9.426;2023-05-17T12:09:14;98660.16;;;13.34;53.12
22104;BME280;11218;48.886;9.426;2023-05-17T12:11:43;98664.84;;;13.43;52.74
22104;BME280;11218;48.886;9.426;2023-05-17T12:14:14;98670.88;;;13.51;53.06
22104;BME280;11218;48.886;9.426;2023-05-17T12:16:43;98663.56;;;13.51;52.93
22104;BME280;11218;48.886;9.426;2023-05-17T12:19:18;98670.19;;;13.60;52.65
22104;BME280;11218;48.886;9.426;2023-05-17T12:21:47;98658.41;;;13.71;52.69
22104;BME280;11218;48.886;9.426;2023-05-17T12:24:16;98666.63;;;13.81;52.31
22104;BME280;11218;48.886;9.426;2023-05-17T12:26:47;98662.91;;;13.88;52.32
22104;BME280;11218;48.886;9.426;2023-05-17T12:29:18;98666.06;;;13.79;53.63
22104;BME280;11218;48.886;9.426;2023-05-17T12:31:55;98661.03;;;13.66;55.80
22104;BME280;11218;48.886;9.426;2023-05-17T12:34:24;98657.97;;;13.58;54.51
22104;BME280;11218;48.886;9.426;2023-05-17T12:36:52;98666.34;;;13.56;54.88
22104;BME280;11218;48.886;9.426;2023-05-17T12:39:23;98659.03;;;13.57;55.54
22104;BME280;11218;48.886;9.426;2023-05-17T12:41:51;98663.31;;;13.53;55.35
22104;BME280;11218;48.886;9.426;2023-05-17T12:44:20;98666.16;;;13.41;55.55
22104;BME280;11218;48.886;9.426;2023-05-17T12:46:48;98653.94;;;13.33;55.73
22104;BME280;11218;48.886;9.426;2023-05-17T12:49:19;98658.84;;;13.36;55.96
22104;BME280;11218;48.886;9.426;2023-05-17T12:51:49;98654.53;;;13.40;55.59
22104;BME280;11218;48.886;9.426;2023-05-17T12:54:27;98667.44;;;13.33;56.13
22104;BME280;11218;48.886;9.426;2023-05-17T12:56:56;98663.81;;;13.23;55.55
22104;BME280;11218;48.886;9.426;2023-05-17T12:59:24;98662.16;;;13.22;55.91
22104;BME280;11218;48.886;9.426;2023-05-17T13:01:56;98662.22;;;13.27;56.26
22104;BME280;11218;48.886;9.426;2023-05-17T13:04:30;98659.91;;;13.35;56.85
22104;BME280;11218;48.886;9.426;2023-05-17T13:07:00;98658.56;;;13.38;55.42
22104;BME280;11218;48.886;9.426;2023-05-17T13:09:32;98658.31;;;13.39;56.18
22104;BME280;11218;48.886;9.426;2023-05-17T13:12:05;98661.31;;;13.43;54.85
22104;BME280;11218;48.886;9.426;2023-05-17T13:14:35;98664.84;;;13.43;54.19
22104;BME280;11218;48.886;9.426;2023-05-17T13:17:09;98658.41;;;13.49;54.27
22104;BME280;11218;48.886;9.426;2023-05-17T13:19:38;98652.75;;;13.51;54.30
22104;BME280;11218;48.886;9.426;2023-05-17T13:22:07;98653.81;;;13.50;53.95